Terminal Aerodrome Forecast
Issued by NWS Blacksburg, VA

Current Version | Previous Version | Graphics & Text | Print | Product List | Glossary On
Versions: 1 2 3 4 5 6 7 8 9 10 11 12 13 14 15
000
FTUS41 KRNK 232323
TAFBLF
TAF
KBLF 232323Z 2400/2424 VRB03KT P6SM VCSH SCT040 OVC080
     FM240200 31004KT P6SM SCT060
     FM240600 26004KT 4SM BR SCT120
      TEMPO 2408/2412 1/2SM FG BKN001
     FM241300 28005KT P6SM SCT020
     FM241700 29008KT P6SM SCT045=

USA.gov is the U.S. government's official web portal to all federal, state and local government web resources and services.